createdAt,value
2019-01-20T00:00:12.491Z,4.29
2019-01-20T00:01:00.764Z,4.29
2019-01-20T00:03:26.678Z,4.25
2019-01-20T00:04:15.569Z,4.31
2019-01-20T00:19:11.568Z,3.72
2019-01-20T00:20:00.570Z,3.71
2019-01-20T00:23:05.286Z,3.88
2019-01-20T00:23:54.853Z,3.92
2019-01-20T00:27:24.233Z,3.96
2019-01-20T00:28:12.781Z,3.84
2019-01-20T00:29:01.460Z,3.98
2019-01-20T00:29:49.965Z,4.02
2019-01-20T00:30:38.545Z,4
2019-01-20T00:31:27.232Z,4.04
2019-01-20T00:32:16.108Z,4.17
2019-01-20T00:33:04.663Z,4.24
2019-01-20T00:33:53.168Z,4.26
2019-01-20T00:34:41.524Z,4.29
2019-01-20T00:35:30.229Z,4.31
2019-01-20T00:36:18.791Z,4.29
2019-01-20T00:37:07.395Z,4.21
2019-01-20T00:37:55.803Z,4.14
2019-01-20T00:40:17.638Z,4.02
2019-01-20T00:42:22.137Z,4.08
2019-01-20T00:43:10.812Z,4
2019-01-20T00:44:01.075Z,4
2019-01-20T00:47:05.052Z,4.06
2019-01-20T00:47:53.754Z,3.9
2019-01-20T00:48:42.292Z,3.93
2019-01-20T00:49:33.160Z,3.95
2019-01-20T00:50:21.845Z,4
2019-01-20T00:51:10.244Z,4.07
2019-01-20T00:51:58.710Z,4.06
2019-01-20T00:52:47.586Z,4.08
2019-01-20T01:00:21.747Z,3.95
2019-01-20T01:01:10.440Z,3.86
2019-01-20T01:01:59.045Z,3.95
2019-01-20T01:02:47.373Z,3.96
2019-01-20T01:03:36.513Z,4.07
2019-01-20T01:04:24.483Z,4.04
2019-01-20T01:05:13.167Z,4.04
2019-01-20T01:06:01.946Z,4.17
2019-01-20T01:06:50.504Z,4.17
2019-01-20T01:07:40.152Z,4.14
2019-01-20T01:08:27.863Z,4.02
2019-01-20T01:09:16.188Z,4.08
2019-01-20T01:10:04.721Z,4
2019-01-20T01:10:53.449Z,3.99
2019-01-20T01:11:41.982Z,3.93
2019-01-20T01:12:30.492Z,4.04
2019-01-20T01:13:19.402Z,3.92
2019-01-20T01:14:07.638Z,3.95
2019-01-20T01:16:38.267Z,3.86
2019-01-20T01:20:04.929Z,4.02
2019-01-20T01:20:53.162Z,4.14
2019-01-20T01:21:42.273Z,4.13
2019-01-20T01:22:30.471Z,4.16
2019-01-20T01:25:43.545Z,4.29
2019-01-20T01:26:32.154Z,4.34
2019-01-20T01:27:20.279Z,4.31
2019-01-20T01:32:32.206Z,4.24
2019-01-20T01:37:34.891Z,4.14
2019-01-20T01:38:23.076Z,4.24
2019-01-20T01:39:11.607Z,4.16
2019-01-20T01:43:29.427Z,3.93
2019-01-20T01:44:19.119Z,3.92
2019-01-20T01:45:19.357Z,3.84
2019-01-20T01:46:13.423Z,3.82
2019-01-20T02:00:38.650Z,3.64
2019-01-20T02:01:31.438Z,3.64
2019-01-20T02:02:20.085Z,3.78
2019-01-20T02:03:08.632Z,3.82
2019-01-20T02:10:31.501Z,3.78
2019-01-20T02:11:20.326Z,3.84
2019-01-20T02:12:08.794Z,3.98
2019-01-20T02:12:57.369Z,4.06
2019-01-20T02:13:45.892Z,4.04
2019-01-20T02:14:34.506Z,4.07
2019-01-20T02:15:23.110Z,4.1
2019-01-20T02:16:11.765Z,4.07
2019-01-20T02:17:00.271Z,4.14
2019-01-20T02:17:48.773Z,4.16
2019-01-20T02:18:37.379Z,4.28
2019-01-20T02:19:25.892Z,4.31
2019-01-20T02:20:14.405Z,4.32
2019-01-20T02:21:02.936Z,4.28
2019-01-20T02:21:51.342Z,4.39
2019-01-20T02:22:40.297Z,4.42
2019-01-20T02:23:28.552Z,4.47
2019-01-20T02:24:17.018Z,4.46
2019-01-20T02:25:05.737Z,4.5
2019-01-20T02:25:54.337Z,4.49
2019-01-20T02:26:42.938Z,4.46
2019-01-20T02:27:31.973Z,4.36
2019-01-20T02:28:21.976Z,4.34
2019-01-20T02:29:10.487Z,4.26
2019-01-20T02:29:59.067Z,4.25
2019-01-20T02:30:47.972Z,4.16
2019-01-20T02:31:38.346Z,3.92
2019-01-20T02:32:26.767Z,3.75
2019-01-20T02:33:15.318Z,3.63
2019-01-20T02:34:03.579Z,3.5
2019-01-20T02:34:52.794Z,3.26
2019-01-20T02:35:40.714Z,3.02
2019-01-20T02:36:29.405Z,2.89
2019-01-20T02:37:17.937Z,2.66
2019-01-20T02:38:06.918Z,2.51
2019-01-20T02:38:55.219Z,2.43
2019-01-20T02:39:44.507Z,2.19
2019-01-20T02:40:32.552Z,2.19
2019-01-20T02:41:21.373Z,2.32
2019-01-20T02:42:10.293Z,2.36
2019-01-20T02:42:58.704Z,2.41
2019-01-20T02:43:47.092Z,2.48
2019-01-20T02:44:35.513Z,2.48
2019-01-20T02:45:24.058Z,2.62
2019-01-20T02:46:12.908Z,2.48
2019-01-20T02:47:01.365Z,2.45
2019-01-20T02:47:49.857Z,2.48
2019-01-20T02:48:38.387Z,2.51
2019-01-20T02:49:26.790Z,2.5
2019-01-20T02:50:15.316Z,2.48
2019-01-20T02:51:04.316Z,2.44
2019-01-20T02:51:52.875Z,2.37
2019-01-20T02:52:40.988Z,2.19
2019-01-20T02:53:29.547Z,2.07
2019-01-20T02:54:18.083Z,2.02
2019-01-20T02:55:06.829Z,1.86
2019-01-20T02:55:55.798Z,1.77
2019-01-20T02:56:43.940Z,1.67
2019-01-20T02:57:32.416Z,1.57
2019-01-20T02:58:20.971Z,1.47
2019-01-20T02:59:09.814Z,1.38
2019-01-20T02:59:58.322Z,1.32
2019-01-20T03:00:47.042Z,1.25
2019-01-20T03:01:35.673Z,1.14
2019-01-20T03:02:23.965Z,1.28
2019-01-20T03:03:12.492Z,1.36
2019-01-20T03:04:00.939Z,1.57
2019-01-20T03:04:49.532Z,1.71
2019-01-20T03:05:38.018Z,1.89
2019-01-20T03:06:26.843Z,1.88
2019-01-20T03:07:15.302Z,2.09
2019-01-20T03:08:04.213Z,2.19
2019-01-20T03:08:52.382Z,2.38
2019-01-20T03:09:41.053Z,2.4
2019-01-20T03:10:29.560Z,2.48
2019-01-20T03:11:17.995Z,2.58
2019-01-20T03:12:06.688Z,2.63
2019-01-20T03:12:55.285Z,2.84
2019-01-20T03:13:44.309Z,3.01
2019-01-20T03:14:32.780Z,3.08
2019-01-20T03:15:21.049Z,3.19
2019-01-20T03:16:09.535Z,3.28
2019-01-20T03:16:58.401Z,3.35
2019-01-20T03:17:47.189Z,3.33
2019-01-20T03:18:35.248Z,3.45
2019-01-20T03:19:23.955Z,3.45
2019-01-20T03:20:12.525Z,3.63
2019-01-20T03:22:35.113Z,3.53
2019-01-20T03:23:23.893Z,3.45
2019-01-20T03:24:12.553Z,3.35
2019-01-20T03:25:00.698Z,3.34
2019-01-20T03:25:49.249Z,3.37
2019-01-20T03:26:37.765Z,3.35
2019-01-20T03:27:26.549Z,3.26
2019-01-20T03:28:15.595Z,3.31
2019-01-20T03:29:04.262Z,3.39
2019-01-20T03:29:53.053Z,3.39
2019-01-20T03:30:41.984Z,3.35
2019-01-20T03:31:30.106Z,3.37
2019-01-20T03:32:18.632Z,3.26
2019-01-20T03:33:07.467Z,3.28
2019-01-20T03:33:56.489Z,3.28
2019-01-20T03:34:45.075Z,3.31
2019-01-20T03:35:33.238Z,3.22
2019-01-20T03:36:21.981Z,3.22
2019-01-20T03:37:10.548Z,3.23
2019-01-20T03:37:59.503Z,2.99
2019-01-20T03:38:47.515Z,2.99
2019-01-20T03:39:36.121Z,2.97
2019-01-20T03:40:24.771Z,2.98
2019-01-20T03:41:13.235Z,2.95
2019-01-20T03:42:02.071Z,2.98
2019-01-20T03:42:50.553Z,3.13
2019-01-20T03:43:39.607Z,3.2
2019-01-20T03:44:28.047Z,3.28
2019-01-20T03:45:16.955Z,3.39
2019-01-20T03:46:05.195Z,3.33
2019-01-20T03:46:53.597Z,3.31
2019-01-20T03:47:42.167Z,3.33
2019-01-20T03:48:31.086Z,3.39
2019-01-20T03:49:19.905Z,3.28
2019-01-20T03:50:08.168Z,3.12
2019-01-20T03:50:56.645Z,3.2
2019-01-20T03:51:45.239Z,3.19
2019-01-20T03:52:33.815Z,3.23
2019-01-20T03:53:22.583Z,3.2
2019-01-20T03:54:11.096Z,3.26
2019-01-20T03:54:59.600Z,3.35
2019-01-20T03:55:48.256Z,3.42
2019-01-20T03:56:37.038Z,3.39
2019-01-20T04:10:45.082Z,2.2
2019-01-20T04:11:33.572Z,2.19
2019-01-20T04:12:22.384Z,2.05
2019-01-20T04:13:10.866Z,2
2019-01-20T04:13:59.721Z,1.9
2019-01-20T04:14:48.383Z,1.83
2019-01-20T04:15:36.871Z,1.7
2019-01-20T04:16:25.488Z,1.63
2019-01-20T04:17:14.075Z,1.61
2019-01-20T04:18:02.727Z,1.57
2019-01-20T04:18:51.770Z,1.65
2019-01-20T04:19:40.816Z,1.68
2019-01-20T04:20:30.069Z,1.6
2019-01-20T04:21:17.881Z,1.63
2019-01-20T04:22:06.166Z,1.67
2019-01-20T04:22:55.319Z,1.56
2019-01-20T04:23:44.380Z,1.7
2019-01-20T04:24:32.567Z,1.7
2019-01-20T04:25:21.582Z,1.77
2019-01-20T04:26:09.821Z,1.7
2019-01-20T04:26:58.822Z,1.74
2019-01-20T04:27:47.370Z,1.86
2019-01-20T04:28:36.225Z,1.85
2019-01-20T05:54:28.086Z,2.55
2019-01-20T05:55:21.755Z,2.48
2019-01-20T05:57:39.649Z,2.38
2019-01-20T05:58:30.734Z,2.44
2019-01-20T05:59:11.883Z,2.44
2019-01-20T06:01:30.795Z,2.51
2019-01-20T06:04:04.848Z,2.73
2019-01-20T06:08:03.976Z,2.9
2019-01-20T06:09:42.991Z,2.95
2019-01-20T06:10:32.492Z,2.94
2019-01-20T06:13:41.360Z,3.1
2019-01-20T06:14:37.856Z,3.04
2019-01-20T06:17:10.424Z,2.9
2019-01-20T06:17:53.837Z,2.95
2019-01-20T06:18:35.752Z,2.9
2019-01-20T06:19:17.745Z,2.89
2019-01-20T06:19:59.703Z,2.83
2019-01-20T06:20:50.740Z,2.74
2019-01-20T06:21:31.138Z,2.77
2019-01-20T06:22:13.163Z,2.76
2019-01-20T06:22:53.591Z,2.62
2019-01-20T06:23:33.975Z,2.59
2019-01-20T06:24:14.383Z,2.56
2019-01-20T06:24:54.807Z,2.63
2019-01-20T06:25:44.503Z,2.68
2019-01-20T06:26:24.921Z,2.65
2019-01-20T06:27:06.272Z,2.8
2019-01-20T06:27:47.639Z,2.8
2019-01-20T06:28:28.937Z,2.89
2019-01-20T06:30:47.519Z,2.87
2019-01-20T06:32:27.203Z,2.95
2019-01-20T06:33:15.445Z,2.95
2019-01-20T06:35:09.843Z,2.99
2019-01-20T06:36:51.586Z,2.9
2019-01-20T06:37:33.900Z,2.9
2019-01-20T06:38:15.226Z,2.86
2019-01-20T06:41:12.856Z,2.76
2019-01-20T06:42:01.121Z,2.77
2019-01-20T06:42:46.442Z,2.76
2019-01-20T06:43:27.217Z,2.79
2019-01-20T06:44:07.623Z,2.76
2019-01-20T06:44:48.072Z,2.73
2019-01-20T06:45:28.426Z,2.63
2019-01-20T06:46:09.756Z,2.63
2019-01-20T06:46:51.755Z,2.65
2019-01-20T06:47:36.618Z,2.55
2019-01-20T06:48:17.009Z,2.69
2019-01-20T06:48:57.411Z,2.81
2019-01-20T06:49:37.818Z,2.79
2019-01-20T06:50:19.266Z,2.76
2019-01-20T06:51:01.104Z,2.79
2019-01-20T06:51:41.497Z,2.79
2019-01-20T06:52:22.848Z,2.84
2019-01-20T06:53:03.272Z,2.77
2019-01-20T06:53:43.686Z,2.77
2019-01-20T06:54:25.695Z,2.77
2019-01-20T06:55:07.861Z,2.76
2019-01-20T06:55:48.216Z,2.71
2019-01-20T06:56:29.562Z,2.69
2019-01-20T06:57:09.976Z,2.68
2019-01-20T06:58:56.441Z,2.89
2019-01-20T06:59:40.406Z,2.87
2019-01-20T07:00:27.646Z,2.99
2019-01-20T07:01:08.044Z,2.98
2019-01-20T07:01:49.223Z,3.02
2019-01-20T07:02:29.635Z,2.97
2019-01-20T07:03:10.939Z,3.02
2019-01-20T07:03:52.310Z,3.05
2019-01-20T07:04:32.739Z,2.98
2019-01-20T07:05:13.160Z,2.86
2019-01-20T07:05:53.540Z,2.89
2019-01-20T07:06:35.837Z,2.73
2019-01-20T07:07:16.250Z,2.62
2019-01-20T07:07:56.636Z,2.66
2019-01-20T07:08:49.707Z,2.66
2019-01-20T07:09:46.044Z,2.73
2019-01-20T07:10:26.452Z,2.66
2019-01-20T07:11:06.859Z,2.65
2019-01-20T07:11:47.274Z,2.71
2019-01-20T07:12:32.359Z,2.59
2019-01-20T07:13:12.916Z,2.68
2019-01-20T07:13:53.270Z,2.65
2019-01-20T07:14:52.938Z,2.41
2019-01-20T07:15:33.362Z,2.4
2019-01-20T07:16:13.786Z,2.41
2019-01-20T07:16:54.226Z,2.44
2019-01-20T07:17:34.700Z,2.48
2019-01-20T07:18:15.088Z,2.61
2019-01-20T07:18:55.484Z,2.66
2019-01-20T07:19:35.907Z,2.65
2019-01-20T07:20:19.779Z,2.62
2019-01-20T07:21:01.777Z,2.51
2019-01-20T07:21:42.156Z,2.5
2019-01-20T07:22:22.575Z,2.43
2019-01-20T07:23:03.004Z,2.41
2019-01-20T07:25:03.770Z,2.38
2019-01-20T07:25:53.684Z,2.55
2019-01-20T07:26:32.269Z,2.47
2019-01-20T07:27:12.692Z,2.58
2019-01-20T07:27:53.158Z,2.59
2019-01-20T07:28:34.141Z,2.62
2019-01-20T07:29:16.137Z,2.61
2019-01-20T07:29:56.546Z,2.69
2019-01-20T07:30:36.990Z,2.73
2019-01-20T07:31:19.357Z,2.71
2019-01-20T07:31:59.752Z,2.68
2019-01-20T07:32:40.151Z,2.73
2019-01-20T07:33:20.597Z,2.68
2019-01-20T07:35:19.243Z,2.63
2019-01-20T07:36:00.650Z,2.63
2019-01-20T07:36:41.072Z,2.59
2019-01-20T07:37:21.476Z,2.51
2019-01-20T07:38:03.666Z,2.51
2019-01-20T07:38:44.079Z,2.53
2019-01-20T07:39:24.491Z,2.62
2019-01-20T07:40:06.518Z,2.77
2019-01-20T07:40:46.897Z,2.8
2019-01-20T07:41:27.300Z,2.9
2019-01-20T07:42:07.707Z,2.92
2019-01-20T07:42:48.118Z,2.89
2019-01-20T07:43:28.534Z,2.99
2019-01-20T07:44:10.809Z,2.99
2019-01-20T07:44:51.207Z,3.1
2019-01-20T07:45:31.633Z,3.1
2019-01-20T07:46:12.018Z,3.1
2019-01-20T07:46:52.423Z,2.97
2019-01-20T07:47:32.823Z,2.99
2019-01-20T07:48:13.244Z,3.07
2019-01-20T07:48:53.664Z,2.94
2019-01-20T07:49:34.066Z,3.05
2019-01-20T07:50:14.493Z,3.13
2019-01-20T07:50:54.870Z,3.25
2019-01-20T07:51:35.256Z,3.3
2019-01-20T07:52:15.644Z,3.22
2019-01-20T07:52:56.085Z,3.34
2019-01-20T07:53:36.471Z,3.33
2019-01-20T07:54:17.803Z,3.42
2019-01-20T07:54:58.217Z,3.42
2019-01-20T07:57:16.713Z,3.8
2019-01-20T07:57:58.850Z,4.1
2019-01-20T07:58:45.794Z,4.31
2019-01-20T07:59:26.224Z,4.36
2019-01-20T08:00:06.645Z,4.32
2019-01-20T08:00:47.006Z,4.32
2019-01-20T08:01:27.422Z,4.34
2019-01-20T08:02:07.829Z,4.39
2019-01-20T08:02:48.233Z,4.39
2019-01-20T08:03:29.179Z,4.56
2019-01-20T08:04:09.591Z,4.62
2019-01-20T08:04:49.993Z,4.8
2019-01-20T08:05:30.426Z,4.93
2019-01-20T08:07:46.016Z,5.3
2019-01-20T08:08:34.218Z,5.35
2019-01-20T08:09:23.430Z,5.55
2019-01-20T08:10:11.674Z,5.67
2019-01-20T08:11:00.236Z,5.74
2019-01-20T08:11:48.940Z,5.85
2019-01-20T08:14:12.991Z,5.95
2019-01-20T08:14:53.791Z,5.98
2019-01-20T08:15:34.204Z,5.96
2019-01-20T08:16:14.599Z,6.05
2019-01-20T08:16:55.061Z,6.03
2019-01-20T08:17:35.484Z,6.1
2019-01-20T08:18:15.879Z,6.17
2019-01-20T08:18:56.266Z,5.99
2019-01-20T08:19:36.717Z,5.9
2019-01-20T08:20:17.183Z,5.75
2019-01-20T08:20:57.605Z,5.75
2019-01-20T08:21:38.010Z,5.9
2019-01-20T08:23:35.961Z,5.95
2019-01-20T08:24:22.325Z,5.81
2019-01-20T08:26:27.568Z,6.19
2019-01-20T08:27:15.924Z,6.13
2019-01-20T08:27:59.666Z,6.08
2019-01-20T08:28:40.106Z,6.35
2019-01-20T08:29:20.523Z,6.4
2019-01-20T08:30:00.943Z,6.4
2019-01-20T08:30:41.350Z,6.35
2019-01-20T08:31:21.747Z,6.11
2019-01-20T08:32:03.901Z,6.05
2019-01-20T08:32:44.315Z,6.11
2019-01-20T08:33:24.743Z,6.25
2019-01-20T08:35:23.170Z,6.55
2019-01-20T08:38:18.221Z,6.65
2019-01-20T08:39:14.349Z,6.5
2019-01-20T08:40:03.894Z,6.45
2019-01-20T08:40:53.811Z,6.38
2019-01-20T08:46:20.695Z,6.35
2019-01-20T08:48:27.012Z,6.55
2019-01-20T08:51:17.654Z,6.91
2019-01-20T08:59:49.602Z,7.94
2019-01-20T09:11:20.179Z,8.8
2019-01-20T09:12:08.910Z,9.13
2019-01-20T09:29:03.532Z,9.08
2019-01-20T09:32:55.388Z,9.74
2019-01-20T09:46:52.944Z,8.22
2019-01-20T09:47:43.263Z,7.89
2019-01-20T09:48:25.792Z,7.77
2019-01-20T09:49:08.009Z,7.7
2019-01-20T09:49:50.163Z,7.45
2019-01-20T09:50:31.648Z,7.3
2019-01-20T09:51:13.729Z,7.34
2019-01-20T09:51:54.215Z,7.41
2019-01-20T09:52:57.782Z,7.69
2019-01-20T09:56:43.034Z,8.32
2019-01-20T10:00:13.999Z,7.27
2019-01-20T10:01:03.658Z,7.45
2019-01-20T10:01:43.667Z,7.5
2019-01-20T10:05:17.699Z,7.66
2019-01-20T10:06:05.078Z,7.62
2019-01-20T10:07:00.717Z,7.84
2019-01-20T10:07:50.253Z,7.91
2019-01-20T10:08:33.941Z,7.81
2019-01-20T10:09:17.793Z,7.82
2019-01-20T10:10:00.361Z,7.66
2019-01-20T10:10:44.372Z,7.37
2019-01-20T10:11:42.909Z,7.18
2019-01-20T10:12:32.049Z,7.3
2019-01-20T10:13:15.224Z,7.39
2019-01-20T10:13:55.870Z,7.34
2019-01-20T10:15:28.262Z,7.19
2019-01-20T10:20:43.360Z,8.06
2019-01-20T10:25:58.548Z,9.17
2019-01-20T10:26:56.499Z,8.96
2019-01-20T10:28:29.963Z,9.12
2019-01-20T10:29:18.872Z,9.45
2019-01-20T11:10:14.402Z,10.78
2019-01-20T11:12:47.976Z,11.11
2019-01-20T11:16:19.526Z,10.25
2019-01-20T11:20:08.336Z,10.35
2019-01-20T11:20:57.283Z,10.38
2019-01-20T11:47:02.416Z,11.08
2019-01-20T11:51:18.414Z,11.28
2019-01-20T11:58:29.898Z,9.01
2019-01-20T12:03:56.967Z,8.54
2019-01-20T12:06:35.199Z,9.3
2019-01-20T12:07:23.394Z,9.32
2019-01-20T12:09:35.951Z,9.4
2019-01-20T12:11:35.202Z,9.6
2019-01-20T12:13:32.648Z,10.68
2019-01-20T12:14:24.063Z,11.12
2019-01-20T12:15:10.880Z,11.16
2019-01-20T12:21:55.593Z,11.02
2019-01-20T12:22:44.050Z,11.33
2019-01-20T12:23:32.891Z,11.62
2019-01-20T12:24:21.394Z,11.88
2019-01-20T12:25:10.300Z,11.94
2019-01-20T12:25:58.369Z,12.05
2019-01-20T12:31:03.448Z,11.53
2019-01-20T12:35:47.973Z,11.66
2019-01-20T12:40:40.582Z,12.26
2019-01-20T12:41:29.370Z,12.26
2019-01-20T12:42:17.550Z,12
2019-01-20T12:43:06.005Z,12.25
2019-01-20T12:43:54.578Z,12.19
2019-01-20T12:44:43.164Z,12.21
2019-01-20T12:47:05.504Z,12.13
2019-01-20T12:47:53.709Z,12.12
2019-01-20T12:48:44.357Z,12.15
2019-01-20T12:49:32.759Z,12.19
2019-01-20T12:50:21.699Z,12.19
2019-01-20T12:51:12.380Z,12.13
2019-01-20T12:51:58.856Z,12.25
2019-01-20T12:55:57.127Z,10.88
2019-01-20T12:56:49.846Z,10.86
2019-01-20T12:57:44.632Z,10.99
2019-01-20T12:58:31.455Z,11.16
2019-01-20T12:59:50.558Z,11.3
2019-01-20T13:00:34.019Z,11.46
2019-01-20T13:01:15.450Z,11.75
2019-01-20T13:01:58.440Z,11.79
2019-01-20T13:02:43.063Z,11.7
2019-01-20T13:05:02.369Z,11.62
2019-01-20T13:05:50.865Z,11.56
2019-01-20T13:06:39.369Z,11.75
2019-01-20T13:07:27.843Z,11.74
2019-01-20T13:08:16.476Z,11.82
2019-01-20T13:09:54.857Z,11.88
2019-01-20T13:17:38.437Z,10.88
2019-01-20T13:18:26.982Z,10.91
2019-01-20T13:19:15.617Z,10.91
2019-01-20T13:20:04.643Z,11.12
2019-01-20T13:20:52.721Z,11.11
2019-01-20T13:25:24.402Z,10.14
2019-01-20T13:33:28.215Z,9.56
2019-01-20T13:41:36.069Z,7.63
2019-01-20T13:45:06.827Z,7.37
2019-01-20T13:47:04.218Z,7.73
2019-01-20T13:47:52.921Z,7.95
2019-01-20T13:53:14.807Z,8.8
2019-01-20T14:07:44.283Z,6.91
2019-01-20T14:15:32.896Z,7.37
2019-01-20T14:16:21.654Z,7.48
2019-01-20T14:17:10.218Z,7.69
2019-01-20T14:19:23.930Z,7.7
2019-01-20T14:43:50.264Z,6.48
2019-01-20T14:47:21.739Z,7
2019-01-20T14:49:09.195Z,7.27
2019-01-20T14:49:59.303Z,7.36
2019-01-20T14:50:39.046Z,7.44
2019-01-20T14:51:19.446Z,7.52
2019-01-20T14:52:01.475Z,7.45
2019-01-20T14:52:41.850Z,7.33
2019-01-20T14:53:22.281Z,7.52
2019-01-20T14:54:02.737Z,7.42
2019-01-20T14:54:43.131Z,7.55
2019-01-20T14:55:23.589Z,7.67
2019-01-20T14:56:04.742Z,7.85
2019-01-20T14:56:45.066Z,7.91
2019-01-20T14:57:25.511Z,8.09
2019-01-20T14:58:05.925Z,8.1
2019-01-20T14:58:46.395Z,8.18
2019-01-20T14:59:26.774Z,8.34
2019-01-20T15:00:07.202Z,8.36
2019-01-20T15:00:47.690Z,8.57
2019-01-20T15:01:29.968Z,8.63
2019-01-20T15:02:10.457Z,8.4
2019-01-20T15:02:52.608Z,8.32
2019-01-20T15:03:33.049Z,8.29
2019-01-20T15:04:16.380Z,8.22
2019-01-20T15:04:56.775Z,8.31
2019-01-20T15:05:37.230Z,8.34
2019-01-20T15:06:17.972Z,8.52
2019-01-20T15:07:00.153Z,8.58
2019-01-20T15:07:41.375Z,8.73
2019-01-20T15:08:22.742Z,8.91
2019-01-20T15:09:03.141Z,8.94
2019-01-20T15:09:43.507Z,9
2019-01-20T15:10:24.023Z,8.94
2019-01-20T15:11:04.379Z,8.88
2019-01-20T15:11:44.815Z,8.97
2019-01-20T15:12:25.252Z,8.93
2019-01-20T15:13:05.632Z,8.89
2019-01-20T15:13:46.073Z,8.94
2019-01-20T15:14:26.533Z,8.97
2019-01-20T15:15:09.223Z,9.1
2019-01-20T15:15:49.310Z,8.94
2019-01-20T15:16:29.731Z,8.91
2019-01-20T15:17:11.790Z,9
2019-01-20T15:17:54.328Z,8.93
2019-01-20T15:18:36.563Z,9.08
2019-01-20T15:19:16.940Z,9.04
2019-01-20T15:19:57.365Z,9.15
2019-01-20T15:20:37.785Z,9.1
2019-01-20T15:21:18.294Z,9.2
2019-01-20T15:21:58.770Z,9.15
2019-01-20T15:22:39.122Z,9.22
2019-01-20T15:23:19.518Z,9.24
2019-01-20T15:23:59.912Z,9.31
2019-01-20T15:24:40.293Z,9.26
2019-01-20T15:25:22.588Z,9.32
2019-01-20T15:26:05.728Z,9.31
2019-01-20T15:28:06.115Z,9.34
2019-01-20T15:28:54.788Z,9.31
2019-01-20T15:29:43.195Z,9.41
2019-01-20T15:30:31.656Z,9.38
2019-01-20T15:31:20.175Z,9.34
2019-01-20T15:32:09.224Z,9.34
2019-01-20T15:32:57.668Z,9.31
2019-01-20T15:33:46.556Z,9.32
2019-01-20T15:34:34.901Z,9.31
2019-01-20T15:35:23.391Z,9.27
2019-01-20T15:36:12.149Z,9.37
2019-01-20T15:37:00.913Z,9.2
2019-01-20T15:37:49.537Z,9.19
2019-01-20T15:38:37.832Z,9.15
2019-01-20T15:39:26.386Z,9.12
2019-01-20T15:40:14.868Z,8.89
2019-01-20T15:41:03.285Z,8.91
2019-01-20T15:41:52.632Z,8.8
2019-01-20T15:42:40.802Z,8.78
2019-01-20T15:43:29.704Z,8.73
2019-01-20T15:44:18.150Z,8.63
2019-01-20T15:45:06.581Z,8.46
2019-01-20T15:45:55.618Z,8.42
2019-01-20T15:46:45.661Z,8.34
2019-01-20T15:47:34.599Z,8.17
2019-01-20T15:48:22.744Z,8.06
2019-01-20T15:49:11.213Z,7.89
2019-01-20T15:49:59.807Z,7.63
2019-01-20T15:50:48.434Z,7.62
2019-01-20T15:51:39.997Z,7.3
2019-01-20T15:52:28.756Z,7.16
2019-01-20T15:59:14.676Z,6.08
2019-01-20T16:00:03.395Z,5.84
2019-01-20T16:00:52.050Z,5.69
2019-01-20T16:01:40.834Z,5.59
2019-01-20T16:02:29.708Z,5.63
2019-01-20T16:03:17.947Z,5.4
2019-01-20T16:09:01.977Z,5.17
2019-01-20T16:09:51.113Z,5.14
2019-01-20T16:10:39.804Z,5.15
2019-01-20T16:11:31.287Z,5.2
2019-01-20T16:12:16.910Z,5.2
2019-01-20T16:13:05.093Z,5.17
2019-01-20T16:13:53.670Z,5.15
2019-01-20T16:14:42.872Z,5.15
2019-01-20T16:15:31.691Z,5.05
2019-01-20T16:16:20.471Z,5.08
2019-01-20T16:17:09.285Z,5.04
2019-01-20T16:17:57.513Z,5.06
2019-01-20T16:18:46.509Z,5.14
2019-01-20T16:19:35.012Z,5.08
2019-01-20T16:20:23.797Z,5.12
2019-01-20T16:21:12.016Z,5.08
2019-01-20T16:22:00.666Z,5.12
2019-01-20T16:22:49.411Z,5.06
2019-01-20T16:23:38.399Z,5.05
2019-01-20T16:24:26.574Z,5.15
2019-01-20T16:25:15.382Z,5.12
2019-01-20T16:26:04.356Z,5.12
2019-01-20T16:26:52.719Z,5.17
2019-01-20T16:27:41.153Z,5.17
2019-01-20T16:28:29.849Z,5.24
2019-01-20T16:29:18.873Z,5.29
2019-01-20T16:30:07.503Z,5.26
2019-01-20T16:30:55.684Z,5.26
2019-01-20T16:31:44.551Z,5.12
2019-01-20T17:13:52.518Z,3.39
2019-01-20T17:14:41.273Z,3.22
2019-01-20T17:15:29.721Z,3.2
2019-01-20T17:16:18.571Z,3.33
2019-01-20T17:17:07.493Z,3.31
2019-01-20T17:17:55.870Z,3.45
2019-01-20T17:18:44.165Z,3.53
2019-01-20T17:19:33.290Z,3.5
2019-01-20T17:20:21.722Z,3.44
2019-01-20T17:21:10.036Z,3.67
2019-01-20T17:21:59.016Z,3.6
2019-01-20T17:22:46.920Z,3.8
2019-01-20T17:23:35.636Z,3.68
2019-01-20T17:24:24.526Z,3.68
2019-01-20T17:25:12.943Z,3.54
2019-01-20T17:26:01.510Z,3.5
2019-01-20T17:26:50.401Z,3.37
2019-01-20T17:27:39.155Z,3.46
2019-01-20T17:28:27.758Z,3.54
2019-01-20T17:29:16.067Z,3.46
2019-01-20T17:30:04.927Z,3.52
2019-01-20T17:30:53.441Z,3.62
2019-01-20T17:31:41.735Z,3.63
2019-01-20T17:32:30.208Z,3.67
2019-01-20T17:33:19.048Z,3.59
2019-01-20T17:34:07.480Z,3.6
2019-01-20T17:34:56.367Z,3.6
2019-01-20T17:35:44.745Z,3.6
2019-01-20T17:36:33.238Z,3.67
2019-01-20T17:37:21.783Z,3.62
2019-01-20T17:38:10.614Z,3.67
2019-01-20T17:38:59.030Z,3.6
2019-01-20T17:39:47.395Z,3.6
2019-01-20T17:40:35.989Z,3.59
2019-01-20T17:41:24.713Z,3.57
2019-01-20T17:42:13.297Z,3.62
2019-01-20T17:43:01.701Z,3.62
2019-01-20T17:43:50.292Z,3.67
2019-01-20T17:44:41.837Z,3.77
2019-01-20T17:45:30.181Z,3.78
2019-01-20T17:46:19.008Z,3.8
2019-01-20T17:47:07.490Z,3.84
2019-01-20T17:47:56.289Z,3.98
2019-01-20T17:48:44.589Z,3.98
2019-01-20T17:49:33.393Z,3.99
2019-01-20T17:50:22.024Z,4
2019-01-20T17:51:10.485Z,4.04
2019-01-20T17:51:58.969Z,4.16
2019-01-20T17:52:48.954Z,4.25
2019-01-20T17:53:37.962Z,4.17
2019-01-20T17:54:26.016Z,4.16
2019-01-20T17:55:15.069Z,4.04
2019-01-20T17:56:03.304Z,4
2019-01-20T17:56:51.939Z,3.86
2019-01-20T17:57:40.150Z,3.8
2019-01-20T17:58:28.800Z,3.59
2019-01-20T17:59:17.260Z,3.62
2019-01-20T18:00:06.065Z,3.6
2019-01-20T18:00:55.019Z,3.57
2019-01-20T18:01:43.204Z,3.57
2019-01-20T18:02:31.703Z,3.6
2019-01-20T18:03:20.599Z,3.54
2019-01-20T18:04:09.930Z,3.56
2019-01-20T18:04:57.611Z,3.46
2019-01-20T18:05:46.190Z,3.5
2019-01-20T18:06:34.619Z,3.44
2019-01-20T18:07:23.597Z,3.42
2019-01-20T18:08:12.017Z,3.52
2019-01-20T18:09:00.716Z,3.54
2019-01-20T18:09:49.289Z,3.5
2019-01-20T18:10:38.005Z,3.45
2019-01-20T18:11:26.549Z,3.42
2019-01-20T18:12:15.150Z,3.42
2019-01-20T18:13:03.772Z,3.42
2019-01-20T18:13:52.226Z,3.45
2019-01-20T18:14:40.766Z,3.33
2019-01-20T18:15:29.506Z,3.3
2019-01-20T18:16:18.267Z,3.35
2019-01-20T18:17:06.511Z,3.33
2019-01-20T18:17:55.254Z,3.37
2019-01-20T18:18:43.651Z,3.3
2019-01-20T18:19:32.897Z,3.19
2019-01-20T18:20:21.097Z,3.15
2019-01-20T18:21:09.718Z,2.99
2019-01-20T18:21:58.310Z,3.02
2019-01-20T18:22:47.042Z,3.1
2019-01-20T18:23:35.495Z,3.19
2019-01-20T18:24:24.487Z,3.19
2019-01-20T18:25:12.712Z,3.19
2019-01-20T18:26:01.133Z,3.12
2019-01-20T18:26:50.191Z,3.19
2019-01-20T18:27:38.220Z,3.13
2019-01-20T18:28:27.146Z,3.12
2019-01-20T18:29:15.913Z,3.1
2019-01-20T18:30:04.115Z,3.12
2019-01-20T18:30:52.689Z,3.04
2019-01-20T18:31:41.305Z,3.07
2019-01-20T18:32:30.218Z,2.99
2019-01-20T18:33:18.390Z,2.84
2019-01-20T18:34:06.964Z,2.74
2019-01-20T18:34:55.514Z,2.73
2019-01-20T18:35:45.581Z,2.61
2019-01-20T18:36:34.010Z,2.55
2019-01-20T18:37:22.769Z,2.58
2019-01-20T18:38:11.578Z,2.48
2019-01-20T18:38:59.998Z,2.45
2019-01-20T18:39:49.051Z,2.37
2019-01-20T18:40:37.100Z,2.38
2019-01-20T18:41:26.082Z,2.27
2019-01-20T18:42:14.412Z,2.08
2019-01-20T18:43:03.050Z,2.04
2019-01-20T18:43:51.316Z,2.05
2019-01-20T18:44:40.098Z,2.02
2019-01-20T18:45:28.599Z,2.01
2019-01-20T18:46:17.208Z,1.86
2019-01-20T18:47:06.054Z,1.83
2019-01-20T18:47:54.323Z,1.81
2019-01-20T18:48:43.538Z,1.71
2019-01-20T18:49:31.979Z,1.74
2019-01-20T18:50:20.593Z,1.65
2019-01-20T18:51:08.729Z,1.68
2019-01-20T18:51:57.587Z,1.53
2019-01-20T18:52:46.056Z,1.65
2019-01-20T18:53:34.935Z,1.56
2019-01-20T18:54:23.184Z,1.54
2019-01-20T18:55:11.826Z,1.52
2019-01-20T18:56:00.511Z,1.53
2019-01-20T18:56:48.819Z,1.53
2019-01-20T18:57:37.468Z,1.65
2019-01-20T18:58:26.144Z,1.57
2019-01-20T18:59:14.648Z,1.71
2019-01-20T19:00:03.551Z,1.71
2019-01-20T19:00:52.016Z,1.79
2019-01-20T19:01:40.827Z,1.86
2019-01-20T19:02:29.078Z,1.92
2019-01-20T19:03:18.152Z,2.05
2019-01-20T19:04:06.679Z,2.07
2019-01-20T19:04:55.053Z,2.04
2019-01-20T19:05:43.539Z,2.19
2019-01-20T19:06:32.566Z,2.19
2019-01-20T19:07:20.676Z,2.19
2019-01-20T19:08:09.250Z,2.2
2019-01-20T19:08:57.987Z,2.29
2019-01-20T19:09:46.548Z,2.29
2019-01-20T19:10:35.128Z,2.37
2019-01-20T19:11:23.922Z,2.29
2019-01-20T19:12:12.256Z,2.32
2019-01-20T19:13:00.937Z,2.43
2019-01-20T19:13:49.460Z,2.36
2019-01-20T19:14:37.776Z,2.33
2019-01-20T19:15:28.243Z,2.36
2019-01-20T19:16:16.784Z,2.32
2019-01-20T19:17:05.265Z,2.37
2019-01-20T19:17:53.822Z,2.32
2019-01-20T19:18:43.026Z,2.3
2019-01-20T19:19:31.318Z,2.36
2019-01-20T19:20:20.187Z,2.2
2019-01-20T19:21:08.229Z,2.19